CL99 weather

Watsonville Community Hospital Heliport
Watsonville, California, United States

Public forecast

Using degrees Fahrenheit for public forecast. Weather courtesy of forecast.io.

METAR (pilot weather report)

Closest report is Watsonville Municipal Airport, 0.7 nm (1.3 km) WSW. Retrieved 2019/06/24 20:53 UTC (35 minutes ago):

KWVI 242053Z AUTO 23008KT 10SM CLR 19/13 A2992 RMK AO2 SLP131 T01890128 $

TAF (pilot weather forecast)

Closest forecast is Salinas Municipal Airport, 18.5 nm (34.3 km) SSE. Retrieved 2019/06/24 18:22 UTC (3 hours ago):

TAF KSNS 241720Z 2418/2518 VRB05KT P6SM SCT008 FM241900 30013KT P6SM FEW250 FM250300 30007KT P6SM BKN008 FM250600 VRB04KT 5SM BR OVC005 FM251700 VRB04KT P6SM SCT005